Time;durP1;ratioP1;P1;durP2;ratioP2;P2;SDS_P1;SDS_P2;PMS_P1;PMS_P2;Temp;Humidity;BMP_temperature;BMP_pressure;BME280_temperature;BME280_humidity;BME280_pressure;Samples;Min_cycle;Max_cycle;Signal;HPM_P1;HPM_P2
2021/05/12 00:01:53;;;;;;;3.53;2.60;;;12.60;73.10;;;;;;5136352;27;39941;-75
2021/05/12 00:04:21;;;;;;;3.30;2.70;;;12.60;73.00;;;;;;5137099;27;38127;-75
2021/05/12 00:06:48;;;;;;;3.00;2.70;;;12.60;72.90;;;;;;5136165;27;37593;-74
2021/05/12 00:09:17;;;;;;;4.90;2.57;;;12.60;72.90;;;;;;5129530;27;39865;-76
2021/05/12 00:11:46;;;;;;;3.00;2.50;;;12.60;72.90;;;;;;5133074;27;38965;-76
2021/05/12 00:14:16;;;;;;;3.20;2.90;;;12.60;72.80;;;;;;5123883;27;38158;-76
2021/05/12 00:16:53;;;;;;;3.50;2.67;;;12.50;72.80;;;;;;5120800;27;35532;-76
2021/05/12 00:19:42;;;;;;;4.50;3.13;;;12.50;72.80;;;;;;5134183;27;39511;-75
2021/05/12 00:22:28;;;;;;;5.67;2.77;;;12.50;72.80;;;;;;5146256;27;39618;-76
2021/05/12 00:24:58;;;;;;;3.27;2.97;;;12.50;72.80;;;;;;5136240;27;38631;-76
2021/05/12 00:27:28;;;;;;;3.37;3.07;;;12.40;72.70;;;;;;5137247;27;37586;-76
2021/05/12 00:29:55;;;;;;;3.00;2.70;;;12.40;72.70;;;;;;5138046;27;40499;-76
2021/05/12 00:32:22;;;;;;;2.90;2.70;;;12.40;72.80;;;;;;5104025;27;37684;-76
2021/05/12 00:34:50;;;;;;;3.63;2.90;;;12.40;72.70;;;;;;5114535;27;37610;-76
2021/05/12 00:37:17;;;;;;;3.40;3.10;;;12.40;72.90;;;;;;5136141;27;37173;-76
2021/05/12 00:39:45;;;;;;;3.10;2.80;;;12.50;72.80;;;;;;5146836;27;40897;-76
2021/05/12 00:42:13;;;;;;;3.37;3.07;;;12.50;72.80;;;;;;5137733;27;39800;-77
2021/05/12 00:44:40;;;;;;;3.07;2.77;;;12.50;72.80;;;;;;5135841;27;38697;-76
2021/05/12 00:47:10;;;;;;;4.50;3.17;;;12.50;72.80;;;;;;5136540;27;38033;-76
2021/05/12 00:49:46;;;;;;;7.83;2.90;;;12.40;72.70;;;;;;5128192;27;39614;-77
2021/05/12 00:52:14;;;;;;;3.27;2.97;;;12.40;72.70;;;;;;5114330;27;40127;-76
2021/05/12 00:54:41;;;;;;;3.07;2.80;;;12.40;72.80;;;;;;5133068;27;37753;-77
2021/05/12 00:57:10;;;;;;;4.13;3.40;;;12.40;72.70;;;;;;5137072;27;37321;-76
2021/05/12 00:59:38;;;;;;;3.50;3.20;;;12.40;72.80;;;;;;5109716;27;38451;-77
2021/05/12 01:02:07;;;;;;;3.50;3.20;;;12.40;72.90;;;;;;5135355;27;39935;-77
2021/05/12 01:04:34;;;;;;;3.43;3.13;;;12.40;73.30;;;;;;5113624;27;36870;-76
2021/05/12 01:07:01;;;;;;;3.10;2.80;;;12.40;73.20;;;;;;5132242;27;37313;-77
2021/05/12 01:09:29;;;;;;;3.40;3.10;;;12.40;73.30;;;;;;5130245;27;39231;-77
2021/05/12 01:11:56;;;;;;;3.70;3.40;;;12.40;73.10;;;;;;5111377;27;37641;-77
2021/05/12 01:14:24;;;;;;;3.73;3.43;;;12.30;73.10;;;;;;5109668;27;37600;-77
2021/05/12 01:16:51;;;;;;;3.83;3.53;;;12.40;73.10;;;;;;5141039;27;37130;-77
2021/05/12 01:19:21;;;;;;;5.20;3.70;;;12.30;73.10;;;;;;5124386;27;39514;-76
2021/05/12 01:21:49;;;;;;;3.70;3.40;;;12.30;73.30;;;;;;5125696;27;40006;-76
2021/05/12 01:24:16;;;;;;;4.43;4.03;;;12.30;73.10;;;;;;5110979;27;37428;-77
2021/05/12 01:26:43;;;;;;;5.13;3.90;;;12.30;73.30;;;;;;5118952;27;35779;-77
2021/05/12 01:29:13;;;;;;;4.27;3.87;;;12.30;73.40;;;;;;5136122;27;40704;-76
2021/05/12 01:31:43;;;;;;;5.03;3.90;;;12.30;73.60;;;;;;5139707;27;39150;-77
2021/05/12 01:34:14;;;;;;;7.20;5.23;;;12.30;73.30;;;;;;5110172;27;37688;-77
2021/05/12 01:36:45;;;;;;;7.80;6.17;;;12.30;73.30;;;;;;5131244;27;37858;-76
2021/05/12 01:39:14;;;;;;;8.20;6.73;;;12.30;73.50;;;;;;5132828;27;40670;-77
2021/05/12 01:41:41;;;;;;;6.30;5.70;;;12.20;73.70;;;;;;5127404;27;38812;-76
2021/05/12 01:44:10;;;;;;;5.83;4.97;;;12.20;73.60;;;;;;5136665;27;38125;-77
2021/05/12 01:46:39;;;;;;;4.83;4.40;;;12.20;73.80;;;;;;5133801;27;37789;-77
2021/05/12 01:49:06;;;;;;;6.03;4.90;;;12.20;73.90;;;;;;5131894;27;40573;-77
2021/05/12 01:51:34;;;;;;;6.53;5.67;;;12.30;73.80;;;;;;5132219;27;40011;-77
2021/05/12 01:54:04;;;;;;;6.00;5.10;;;12.30;73.50;;;;;;5116891;27;37611;-77
2021/05/12 01:56:33;;;;;;;7.00;4.83;;;12.30;73.70;;;;;;5132403;27;37502;-77
2021/05/12 01:59:00;;;;;;;6.03;5.43;;;12.40;73.80;;;;;;5132815;27;39756;-77
2021/05/12 02:01:28;;;;;;;7.97;6.80;;;12.30;73.60;;;;;;5132646;27;38433;-77
2021/05/12 02:03:55;;;;;;;8.47;7.10;;;12.40;73.90;;;;;;5130508;27;38796;-77
2021/05/12 02:06:22;;;;;;;9.60;7.63;;;12.40;74.00;;;;;;5114462;27;35908;-77
2021/05/12 02:08:49;;;;;;;11.33;7.77;;;12.30;74.00;;;;;;5128168;27;40012;-77
2021/05/12 02:11:17;;;;;;;6.90;6.20;;;12.40;74.20;;;;;;5132825;27;39220;-77
2021/05/12 02:13:45;;;;;;;8.30;6.60;;;12.30;74.20;;;;;;5142024;27;38921;-77
2021/05/12 02:16:12;;;;;;;10.03;7.03;;;12.30;74.20;;;;;;5130231;27;38177;-77
2021/05/12 02:18:39;;;;;;;8.00;6.97;;;12.30;74.40;;;;;;5114207;27;39849;-77
2021/05/12 02:21:07;;;;;;;6.60;5.83;;;12.30;74.00;;;;;;5142800;27;39955;-77
2021/05/12 02:23:34;;;;;;;6.30;5.33;;;12.30;73.90;;;;;;5135782;27;39023;-77
2021/05/12 02:26:01;;;;;;;7.03;6.00;;;12.20;73.70;;;;;;5124544;27;37381;-77
2021/05/12 02:28:28;;;;;;;4.80;4.00;;;12.20;73.70;;;;;;5132307;27;39622;-77
2021/05/12 02:30:56;;;;;;;5.13;3.50;;;12.20;74.00;;;;;;5136356;27;38999;-77
2021/05/12 02:33:23;;;;;;;5.97;4.93;;;12.20;73.50;;;;;;5132522;27;38005;-77
2021/05/12 02:35:50;;;;;;;5.57;4.40;;;12.20;73.60;;;;;;5131788;27;38075;-76
2021/05/12 02:38:20;;;;;;;3.50;3.00;;;12.10;73.60;;;;;;5122980;27;39881;-77
2021/05/12 02:40:47;;;;;;;6.20;3.63;;;12.00;73.00;;;;;;5121367;27;39860;-76
2021/05/12 02:43:14;;;;;;;7.90;4.77;;;12.00;72.60;;;;;;5121509;27;38019;-77
2021/05/12 02:45:41;;;;;;;5.27;4.30;;;11.90;72.90;;;;;;5114070;27;35925;-77
2021/05/12 02:48:09;;;;;;;8.93;6.23;;;11.90;73.00;;;;;;5110833;27;39014;-77
2021/05/12 02:50:38;;;;;;;6.67;5.87;;;11.90;72.70;;;;;;5134035;27;40274;-75
2021/05/12 02:53:07;;;;;;;6.97;5.13;;;11.90;72.70;;;;;;5128177;27;38030;-74
2021/05/12 02:55:35;;;;;;;5.60;4.63;;;11.90;72.60;;;;;;5129399;27;37973;-75
2021/05/12 02:58:05;;;;;;;7.10;5.30;;;11.90;72.80;;;;;;5135418;27;39309;-76
2021/05/12 03:00:33;;;;;;;5.70;4.30;;;11.90;72.90;;;;;;5133397;27;38671;-77
2021/05/12 03:03:00;;;;;;;5.30;4.80;;;11.90;73.30;;;;;;5120200;27;38886;-76
2021/05/12 03:05:30;;;;;;;5.07;3.70;;;11.90;73.40;;;;;;5116723;27;36199;-76
2021/05/12 03:07:57;;;;;;;3.37;3.07;;;11.90;73.40;;;;;;5117583;27;38132;-76
2021/05/12 03:10:24;;;;;;;5.50;3.50;;;12.00;73.60;;;;;;5127126;27;39966;-76
2021/05/12 03:12:51;;;;;;;3.20;2.73;;;12.00;73.30;;;;;;5130236;27;39047;-76
2021/05/12 03:15:21;;;;;;;5.33;3.23;;;12.00;73.10;;;;;;5119409;27;35873;-77
2021/05/12 03:17:48;;;;;;;2.93;2.63;;;12.10;73.20;;;;;;5134627;27;39912;-76
2021/05/12 03:20:16;;;;;;;2.10;1.90;;;12.00;73.10;;;;;;5133274;27;40210;-77
2021/05/12 03:22:44;;;;;;;3.03;1.80;;;12.00;73.20;;;;;;5134534;27;36933;-77
2021/05/12 03:25:13;;;;;;;2.20;2.00;;;12.00;72.90;;;;;;5133152;27;37185;-77
2021/05/12 03:27:40;;;;;;;2.53;2.13;;;11.90;72.20;;;;;;5125621;27;40608;-77
2021/05/12 03:30:10;;;;;;;3.47;2.30;;;11.90;72.30;;;;;;5126003;27;39356;-76
2021/05/12 03:32:39;;;;;;;6.67;3.70;;;11.90;71.80;;;;;;5119886;27;38136;-77
2021/05/12 03:35:07;;;;;;;7.47;5.17;;;11.80;71.80;;;;;;5135387;27;37030;-75
2021/05/12 03:37:36;;;;;;;5.13;4.63;;;11.90;71.10;;;;;;5117568;27;39350;-77
2021/05/12 03:40:06;;;;;;;5.37;3.30;;;11.90;71.30;;;;;;5145947;27;38964;-77
2021/05/12 03:42:33;;;;;;;2.90;2.60;;;11.90;71.20;;;;;;5157809;27;39271;-77
2021/05/12 03:45:00;;;;;;;4.40;2.37;;;11.90;71.30;;;;;;5151582;27;38683;-77
2021/05/12 03:47:30;;;;;;;3.30;2.30;;;11.90;71.00;;;;;;5158471;27;40250;-77
2021/05/12 03:49:57;;;;;;;2.90;2.17;;;11.90;70.60;;;;;;5145143;27;39221;-77
2021/05/12 03:52:24;;;;;;;2.27;2.00;;;11.90;70.60;;;;;;5154597;27;38195;-77
2021/05/12 03:54:51;;;;;;;1.97;1.87;;;11.90;70.60;;;;;;5147816;27;36184;-76
2021/05/12 03:57:19;;;;;;;2.23;1.80;;;12.00;70.50;;;;;;5114890;27;38191;-77
2021/05/12 03:59:46;;;;;;;3.03;2.20;;;12.00;70.20;;;;;;5145594;27;39836;-77
2021/05/12 04:02:16;;;;;;;4.17;1.90;;;12.00;70.10;;;;;;5140027;27;38206;-77
2021/05/12 04:04:43;;;;;;;1.97;1.87;;;12.00;70.10;;;;;;5113521;27;35951;-77
2021/05/12 04:07:10;;;;;;;2.40;1.90;;;12.00;70.20;;;;;;5134585;27;39337;-77
2021/05/12 04:09:37;;;;;;;2.00;1.90;;;12.00;69.90;;;;;;5132290;27;39233;-76
2021/05/12 04:12:07;;;;;;;2.53;2.33;;;12.00;69.90;;;;;;5132805;27;38459;-77
2021/05/12 04:14:35;;;;;;;4.27;2.07;;;12.00;70.00;;;;;;5129588;27;36740;-77
2021/05/12 04:17:02;;;;;;;3.83;2.20;;;12.00;69.80;;;;;;5103211;27;38487;-76
2021/05/12 04:19:31;;;;;;;2.03;1.80;;;12.00;69.70;;;;;;5136542;27;39847;-77
2021/05/12 04:21:59;;;;;;;4.10;2.20;;;12.00;69.40;;;;;;5130768;27;20582;-77
2021/05/12 04:24:29;;;;;;;2.40;2.07;;;12.00;69.20;;;;;;5133940;27;36977;-76
2021/05/12 04:26:56;;;;;;;2.03;1.90;;;12.00;68.90;;;;;;5130190;27;39910;-77
2021/05/12 04:29:23;;;;;;;3.73;2.00;;;12.00;68.70;;;;;;5131055;27;39156;-77
2021/05/12 04:31:51;;;;;;;2.37;2.10;;;12.00;68.70;;;;;;5131198;27;38816;-77
2021/05/12 04:34:18;;;;;;;2.80;1.67;;;12.00;68.40;;;;;;5135402;27;37187;-77
2021/05/12 04:36:45;;;;;;;2.23;2.03;;;12.00;68.50;;;;;;5112740;27;39618;-77
2021/05/12 04:39:12;;;;;;;3.23;2.17;;;12.00;68.30;;;;;;5115904;27;39256;-77
2021/05/12 04:41:39;;;;;;;3.90;2.43;;;12.00;68.70;;;;;;5128161;27;37701;-77
2021/05/12 04:44:07;;;;;;;3.80;2.20;;;12.00;68.90;;;;;;5136083;27;36296;-77
2021/05/12 04:46:34;;;;;;;2.57;2.37;;;11.90;68.60;;;;;;5122581;27;40547;-77
2021/05/12 04:49:05;;;;;;;3.40;2.60;;;12.00;68.40;;;;;;5107467;27;38803;-77
2021/05/12 04:51:33;;;;;;;5.10;2.53;;;12.00;68.10;;;;;;5128945;27;38287;-77
2021/05/12 04:54:00;;;;;;;5.90;2.30;;;12.00;68.10;;;;;;5145520;27;37183;-76
2021/05/12 04:56:28;;;;;;;4.10;2.70;;;12.00;68.10;;;;;;5129064;27;40600;-76
2021/05/12 04:58:55;;;;;;;3.40;2.30;;;12.00;68.50;;;;;;5126696;27;38521;-77
2021/05/12 05:01:22;;;;;;;4.17;2.50;;;12.00;68.10;;;;;;5133085;27;37950;-76
2021/05/12 05:03:49;;;;;;;3.10;2.47;;;12.00;68.30;;;;;;5131209;27;37220;-77
2021/05/12 05:06:17;;;;;;;5.30;3.63;;;11.90;68.20;;;;;;5121905;27;39797;-77
2021/05/12 05:08:44;;;;;;;5.07;2.70;;;11.90;68.60;;;;;;5101762;27;38747;-77
2021/05/12 05:11:11;;;;;;;5.57;2.30;;;12.00;68.60;;;;;;5114210;27;37744;-77
2021/05/12 05:13:39;;;;;;;3.40;2.97;;;12.00;68.50;;;;;;5137607;27;38111;-77
2021/05/12 05:16:08;;;;;;;4.83;3.70;;;12.10;68.70;;;;;;5134648;27;40115;-77
2021/05/12 05:18:36;;;;;;;5.97;2.57;;;12.10;68.70;;;;;;5132464;27;39118;-76
2021/05/12 05:21:04;;;;;;;4.50;3.20;;;12.00;68.60;;;;;;5121988;27;36912;-77
2021/05/12 05:23:35;;;;;;;4.37;2.60;;;12.00;68.80;;;;;;5114220;27;38014;-77
2021/05/12 05:26:03;;;;;;;5.63;2.83;;;12.00;69.10;;;;;;5128029;27;39865;-77
2021/05/12 05:28:31;;;;;;;4.70;3.30;;;12.00;69.30;;;;;;5132779;27;39664;-77
2021/05/12 05:30:58;;;;;;;5.83;2.90;;;12.00;69.40;;;;;;5129724;27;38143;-76
2021/05/12 05:33:44;;;;;;;5.17;2.90;;;11.90;69.50;;;;;;5131933;27;38424;-77
2021/05/12 05:36:30;;;;;;;3.10;2.80;;;11.90;70.00;;;;;;5128880;27;40393;-77
2021/05/12 05:39:16;;;;;;;5.53;3.30;;;11.90;69.90;;;;;;5124504;27;39881;-77
2021/05/12 05:42:02;;;;;;;6.13;3.40;;;11.90;70.20;;;;;;5129664;27;39080;-77
2021/05/12 05:44:49;;;;;;;4.13;3.47;;;11.90;70.60;;;;;;5123338;27;38078;-77
2021/05/12 05:47:34;;;;;;;4.33;3.47;;;11.90;70.30;;;;;;5126790;27;41161;-77
2021/05/12 05:50:20;;;;;;;3.70;3.33;;;11.90;70.40;;;;;;5135633;27;39716;-77
2021/05/12 05:53:07;;;;;;;5.07;3.70;;;12.00;70.40;;;;;;5135235;27;38568;-77
2021/05/12 05:55:53;;;;;;;4.13;3.73;;;12.00;70.10;;;;;;5138649;27;37980;-76
2021/05/12 05:58:39;;;;;;;3.80;3.40;;;12.00;69.80;;;;;;5144156;27;40738;-78
2021/05/12 06:01:25;;;;;;;4.47;3.63;;;12.00;70.00;;;;;;5139273;27;39858;-78
2021/05/12 06:03:52;;;;;;;4.13;3.27;;;12.10;69.90;;;;;;5151846;27;38880;-76
2021/05/12 06:06:37;;;;;;;5.17;4.40;;;12.10;69.80;;;;;;5150182;27;38503;-77
2021/05/12 06:09:28;;;;;;;3.43;3.03;;;12.20;69.90;;;;;;5154917;27;40384;-75
2021/05/12 06:12:14;;;;;;;4.13;3.40;;;12.20;69.50;;;;;;5145778;27;39890;-76
2021/05/12 06:15:00;;;;;;;6.50;3.77;;;12.20;69.30;;;;;;5142104;27;38515;-78
2021/05/12 06:17:46;;;;;;;3.07;2.77;;;12.20;68.90;;;;;;5133678;27;38049;-79
2021/05/12 06:20:32;;;;;;;2.90;2.60;;;12.20;68.40;;;;;;5143891;27;40217;-78
2021/05/12 06:23:17;;;;;;;2.50;2.30;;;12.20;68.30;;;;;;5132848;27;40172;-77
2021/05/12 06:26:04;;;;;;;2.20;1.97;;;12.20;68.30;;;;;;5141862;27;38321;-76
2021/05/12 06:28:51;;;;;;;2.70;2.20;;;12.20;67.80;;;;;;5139791;27;38522;-75
2021/05/12 06:31:36;;;;;;;2.60;2.07;;;12.20;67.60;;;;;;5138070;27;40576;-77
2021/05/12 06:34:22;;;;;;;3.90;3.20;;;12.20;67.20;;;;;;5131720;27;39602;-76
2021/05/12 06:37:15;;;;;;;2.30;1.63;;;12.20;66.90;;;;;;5110331;27;38979;-76
2021/05/12 06:40:00;;;;;;;1.60;1.40;;;12.10;66.60;;;;;;5137987;27;38075;-76
2021/05/12 06:42:27;;;;;;;1.40;1.00;;;12.10;66.20;;;;;;5141575;27;40676;-77
2021/05/12 06:44:55;;;;;;;1.70;1.50;;;12.10;65.60;;;;;;5138688;27;39078;-78
2021/05/12 06:47:22;;;;;;;1.23;0.90;;;12.10;65.50;;;;;;5150090;27;37670;-78
2021/05/12 06:49:49;;;;;;;1.00;0.80;;;12.10;64.50;;;;;;5118547;27;36825;-77
2021/05/12 06:52:18;;;;;;;2.50;0.90;;;12.00;63.80;;;;;;5117874;27;38505;-78
2021/05/12 06:54:45;;;;;;;1.00;0.83;;;12.00;64.10;;;;;;5117548;27;37676;-77
2021/05/12 06:57:12;;;;;;;1.33;0.80;;;11.90;63.70;;;;;;5114197;27;36597;-77
2021/05/12 06:59:41;;;;;;;1.40;0.70;;;11.90;63.50;;;;;;5158587;27;37355;-77
2021/05/12 07:02:10;;;;;;;0.90;0.70;;;12.00;63.30;;;;;;5165247;27;39168;-78
2021/05/12 07:04:37;;;;;;;1.17;0.70;;;12.00;63.10;;;;;;5133123;27;40158;-77
2021/05/12 07:07:04;;;;;;;1.90;0.70;;;12.10;63.20;;;;;;5118835;27;36713;-77
2021/05/12 07:09:31;;;;;;;1.50;1.20;;;12.10;63.00;;;;;;5113588;27;37000;-77
2021/05/12 07:11:58;;;;;;;0.90;0.60;;;12.20;63.20;;;;;;5149036;27;41134;-78
2021/05/12 07:14:25;;;;;;;1.00;0.70;;;12.20;62.30;;;;;;5148048;27;39757;-77
2021/05/12 07:16:53;;;;;;;1.73;0.87;;;12.20;61.90;;;;;;5146693;27;38194;-77
2021/05/12 07:19:21;;;;;;;1.10;0.80;;;12.20;61.90;;;;;;5109868;27;36117;-78
2021/05/12 07:21:50;;;;;;;2.37;0.90;;;12.20;62.20;;;;;;5132086;27;39629;-77
2021/05/12 07:24:17;;;;;;;1.63;1.07;;;12.20;61.90;;;;;;5125020;27;38753;-78
2021/05/12 07:26:48;;;;;;;3.87;1.00;;;12.20;61.70;;;;;;5134990;27;39336;-77
2021/05/12 07:29:16;;;;;;;1.47;0.70;;;12.20;61.80;;;;;;5119308;27;36995;-77
2021/05/12 07:31:43;;;;;;;1.80;0.90;;;12.20;62.00;;;;;;5097609;27;38367;-78
2021/05/12 07:34:10;;;;;;;1.00;0.90;;;12.30;61.90;;;;;;5114593;27;39786;-77
2021/05/12 07:36:39;;;;;;;1.53;0.90;;;12.40;61.50;;;;;;5094925;28;36919;-78
2021/05/12 07:39:07;;;;;;;1.27;0.80;;;12.40;61.30;;;;;;5114215;27;37097;-78
2021/05/12 07:41:35;;;;;;;4.83;1.20;;;12.50;60.90;;;;;;5111766;27;40544;-78
2021/05/12 07:44:03;;;;;;;1.57;0.87;;;12.50;60.80;;;;;;5096414;28;36971;-78
2021/05/12 07:46:31;;;;;;;2.83;0.80;;;12.50;60.90;;;;;;5117318;27;37929;-77
2021/05/12 07:48:58;;;;;;;0.90;0.80;;;12.60;61.00;;;;;;5111877;27;36520;-78
2021/05/12 07:51:25;;;;;;;1.37;0.70;;;12.70;60.60;;;;;;5096231;27;40074;-77
2021/05/12 07:53:54;;;;;;;2.73;1.20;;;12.80;60.20;;;;;;5113980;27;39748;-78
2021/05/12 07:56:21;;;;;;;3.73;1.00;;;12.80;59.90;;;;;;5115367;27;38248;-75
2021/05/12 07:58:51;;;;;;;1.47;1.13;;;12.80;60.00;;;;;;5101246;27;36772;-78
2021/05/12 08:01:20;;;;;;;1.87;1.10;;;12.80;59.70;;;;;;5131597;27;39852;-76
2021/05/12 08:03:48;;;;;;;2.40;1.20;;;12.80;59.70;;;;;;5108982;27;39193;-76
2021/05/12 08:06:15;;;;;;;2.20;1.00;;;12.80;59.80;;;;;;5122217;27;38584;-78
2021/05/12 08:08:42;;;;;;;1.53;1.00;;;12.80;60.10;;;;;;5104873;27;37525;-76
2021/05/12 08:11:10;;;;;;;4.63;1.20;;;12.80;60.20;;;;;;5122457;27;39580;-77
2021/05/12 08:13:37;;;;;;;3.13;1.80;;;12.80;60.20;;;;;;5112057;27;38735;-76
2021/05/12 08:16:05;;;;;;;1.43;1.30;;;12.80;60.20;;;;;;5119393;27;38076;-78
2021/05/12 08:18:32;;;;;;;2.33;1.10;;;12.90;60.00;;;;;;5121357;27;38467;-78
2021/05/12 08:21:00;;;;;;;2.90;0.93;;;12.90;60.20;;;;;;5132594;27;40060;-78
2021/05/12 08:23:27;;;;;;;1.93;1.00;;;13.00;60.30;;;;;;5098528;27;38172;-79
2021/05/12 08:25:54;;;;;;;1.83;1.10;;;13.10;60.40;;;;;;5116007;27;38070;-78
2021/05/12 08:28:22;;;;;;;1.80;1.13;;;13.20;60.20;;;;;;5115071;27;37620;-77
2021/05/12 08:30:50;;;;;;;3.53;1.43;;;13.20;59.80;;;;;;5124757;27;39669;-77
2021/05/12 08:33:25;;;;;;;2.60;1.20;;;13.30;59.50;;;;;;5150786;27;39386;-77
2021/05/12 08:36:11;;;;;;;1.80;1.43;;;13.30;59.50;;;;;;5125270;27;38516;-77
2021/05/12 08:38:46;;;;;;;1.83;1.27;;;13.40;59.20;;;;;;5133950;27;37319;-78
2021/05/12 08:41:14;;;;;;;1.30;1.13;;;13.40;58.90;;;;;;5140445;27;38345;-78
2021/05/12 08:43:47;;;;;;;1.50;1.27;;;13.40;59.10;;;;;;5129333;27;38837;-78
2021/05/12 08:46:27;;;;;;;1.53;1.30;;;13.40;58.60;;;;;;5137744;27;38911;-78
2021/05/12 08:48:56;;;;;;;1.43;1.20;;;13.40;59.10;;;;;;5124329;27;35958;-78
2021/05/12 08:51:29;;;;;;;2.83;1.40;;;13.30;58.90;;;;;;5140213;27;40328;-78
2021/05/12 08:53:58;;;;;;;1.33;1.23;;;13.40;58.90;;;;;;5140925;27;39716;-78
2021/05/12 08:56:25;;;;;;;2.03;1.80;;;13.40;58.90;;;;;;5125109;27;36914;-77
2021/05/12 08:58:53;;;;;;;3.13;1.83;;;13.30;59.30;;;;;;5145975;27;37518;-76
2021/05/12 09:01:23;;;;;;;6.63;1.80;;;13.30;59.30;;;;;;5122116;27;38153;-77
2021/05/12 09:03:54;;;;;;;4.80;2.10;;;13.30;59.40;;;;;;5143037;27;39564;-77
2021/05/12 09:06:22;;;;;;;3.17;2.70;;;13.30;59.20;;;;;;5137084;27;37918;-77
2021/05/12 09:08:50;;;;;;;3.73;2.33;;;13.30;59.20;;;;;;5144314;27;37341;-77
2021/05/12 09:11:17;;;;;;;8.20;2.43;;;13.30;59.20;;;;;;5141492;27;39508;-80
2021/05/12 09:13:47;;;;;;;2.47;2.27;;;13.30;59.10;;;;;;5143593;27;39220;-78
2021/05/12 09:16:23;;;;;;;12.13;2.00;;;13.20;59.00;;;;;;5132002;27;37065;-78
2021/05/12 09:19:01;;;;;;;2.40;1.90;;;13.30;59.20;;;;;;5143879;27;38060;-79
2021/05/12 09:21:46;;;;;;;3.53;2.13;;;13.30;59.30;;;;;;5124209;27;38352;-78
2021/05/12 09:24:21;;;;;;;5.40;2.10;;;13.30;60.00;;;;;;5126931;27;37980;-78
2021/05/12 09:26:49;;;;;;;4.30;2.43;;;13.40;59.90;;;;;;5129726;27;37211;-77
2021/05/12 09:29:27;;;;;;;4.43;2.30;;;13.40;60.40;;;;;;5147707;27;37585;-77
2021/05/12 09:32:05;;;;;;;2.63;2.37;;;13.50;60.80;;;;;;5148440;27;38839;-78
2021/05/12 09:34:55;;;;;;;4.90;2.47;;;13.60;60.90;;;;;;5129561;27;39102;-77
2021/05/12 09:37:26;;;;;;;2.80;2.00;;;13.70;60.90;;;;;;5139748;27;38427;-77
2021/05/12 09:39:54;;;;;;;6.50;2.20;;;13.80;59.80;;;;;;5141692;27;36946;-78
2021/05/12 09:42:22;;;;;;;3.33;2.80;;;13.80;59.20;;;;;;5122204;27;39515;-79
2021/05/12 09:45:09;;;;;;;6.40;2.37;;;13.90;59.70;;;;;;5121731;27;37725;-78
2021/05/12 09:47:38;;;;;;;2.23;2.03;;;13.90;60.20;;;;;;5146204;27;38255;-77
2021/05/12 09:50:15;;;;;;;2.33;2.07;;;13.90;60.30;;;;;;5153304;27;37366;-77
2021/05/12 09:52:43;;;;;;;3.63;2.13;;;13.90;60.00;;;;;;5129345;27;38965;-77
2021/05/12 09:55:14;;;;;;;5.40;2.37;;;13.90;59.20;;;;;;5149547;27;39264;-78
2021/05/12 09:58:00;;;;;;;5.30;2.43;;;13.90;60.10;;;;;;5147173;27;37233;-77
2021/05/12 10:00:30;;;;;;;2.77;1.80;;;13.90;60.30;;;;;;5141501;27;37626;-78
2021/05/12 10:03:00;;;;;;;3.30;2.43;;;14.00;60.30;;;;;;5163853;27;39449;-77
2021/05/12 10:05:28;;;;;;;2.90;2.20;;;14.10;59.60;;;;;;5146706;27;39256;-77
2021/05/12 10:07:59;;;;;;;3.50;2.20;;;14.20;58.70;;;;;;5143013;27;38620;-79
2021/05/12 10:10:40;;;;;;;2.40;2.20;;;14.40;58.60;;;;;;5146101;27;37515;-78
2021/05/12 10:13:07;;;;;;;3.23;1.87;;;14.60;58.10;;;;;;5138567;27;39551;-78
2021/05/12 10:15:35;;;;;;;3.90;2.30;;;14.80;58.20;;;;;;5148531;27;39430;-78
2021/05/12 10:18:03;;;;;;;2.97;2.40;;;15.00;57.70;;;;;;5146920;27;38836;-78
2021/05/12 10:20:30;;;;;;;2.97;2.30;;;15.20;56.50;;;;;;5133317;27;37077;-79
2021/05/12 10:23:00;;;;;;;3.80;2.57;;;15.40;56.20;;;;;;5154137;27;39475;-79
2021/05/12 10:25:28;;;;;;;3.30;2.60;;;15.50;55.70;;;;;;5142316;27;39071;-78
2021/05/12 10:28:02;;;;;;;2.47;2.00;;;15.60;55.60;;;;;;5122539;27;36980;-79
2021/05/12 10:30:29;;;;;;;3.67;2.83;;;15.50;54.80;;;;;;5145299;27;37505;-77
2021/05/12 10:33:07;;;;;;;4.37;2.40;;;15.50;54.40;;;;;;5146315;27;39714;-78
2021/05/12 10:35:35;;;;;;;4.50;2.43;;;15.50;54.50;;;;;;5126723;27;37512;-78
2021/05/12 10:38:06;;;;;;;3.17;2.33;;;15.60;55.20;;;;;;5140893;27;38130;-78
2021/05/12 10:40:38;;;;;;;3.80;2.20;;;15.60;55.10;;;;;;5133542;27;37026;-79
2021/05/12 10:43:20;;;;;;;2.20;2.00;;;15.60;55.20;;;;;;5151514;27;40912;-78
2021/05/12 10:45:57;;;;;;;4.00;2.33;;;15.50;55.10;;;;;;5154869;27;40377;-78
2021/05/12 10:48:47;;;;;;;3.73;2.87;;;15.40;55.20;;;;;;5149024;27;38777;-78
2021/05/12 10:51:31;;;;;;;4.83;2.83;;;15.50;55.60;;;;;;5154350;27;37226;-78
2021/05/12 10:54:01;;;;;;;3.07;2.67;;;15.50;55.60;;;;;;5161865;27;40919;-78
2021/05/12 10:56:36;;;;;;;3.20;2.90;;;15.40;56.00;;;;;;5153084;27;39208;-79
2021/05/12 10:59:04;;;;;;;4.10;2.90;;;15.40;55.60;;;;;;5147541;27;39384;-79
2021/05/12 11:01:51;;;;;;;5.73;3.23;;;15.40;55.70;;;;;;5149563;27;37513;-79
2021/05/12 11:04:22;;;;;;;5.43;3.60;;;15.40;55.70;;;;;;5131293;27;39913;-79
2021/05/12 11:07:08;;;;;;;4.40;3.17;;;15.50;55.20;;;;;;5133611;27;39430;-78
2021/05/12 11:09:50;;;;;;;5.03;3.27;;;15.50;54.60;;;;;;5131576;27;38003;-76
2021/05/12 11:12:33;;;;;;;3.70;2.67;;;15.40;54.50;;;;;;5112241;27;35913;-78
2021/05/12 11:15:03;;;;;;;4.07;3.07;;;15.50;54.50;;;;;;5114835;27;38423;-77
2021/05/12 11:17:50;;;;;;;4.87;2.70;;;15.50;54.60;;;;;;5144479;27;39023;-79
2021/05/12 11:20:25;;;;;;;6.77;4.27;;;15.50;54.50;;;;;;5140584;27;39286;-78
2021/05/12 11:22:54;;;;;;;5.90;2.93;;;15.60;54.10;;;;;;5143371;27;37095;-78
2021/05/12 11:25:40;;;;;;;4.50;2.87;;;15.70;54.20;;;;;;5142661;27;40022;-78
2021/05/12 11:33:45;;;;;;;4.50;3.00;;;16.20;52.70;;;;;;5141029;27;35711;-78
2021/05/12 11:36:14;;;;;;;5.93;3.60;;;16.40;52.60;;;;;;5144471;27;39575;-78
2021/05/12 11:38:42;;;;;;;4.67;3.43;;;16.50;51.20;;;;;;5129180;27;39892;-78
2021/05/12 11:41:12;;;;;;;6.57;3.17;;;16.80;52.30;;;;;;5133545;27;36738;-78
2021/05/12 11:43:41;;;;;;;5.23;2.70;;;17.20;50.50;;;;;;5140960;27;37365;-78
2021/05/12 11:46:10;;;;;;;6.23;2.87;;;17.60;49.40;;;;;;5119676;27;39467;-78
2021/05/12 11:48:43;;;;;;;3.50;2.27;;;18.10;49.00;;;;;;5119472;27;36640;-77
2021/05/12 11:51:18;;;;;;;3.40;2.97;;;18.70;47.20;;;;;;5139679;27;38176;-77
2021/05/12 11:53:45;;;;;;;8.50;5.80;;;19.40;47.50;;;;;;5132980;27;38357;-78
2021/05/12 11:56:13;;;;;;;3.40;2.40;;;19.90;45.80;;;;;;5120021;27;39319;-77
2021/05/12 11:58:42;;;;;;;5.63;2.33;;;20.40;45.10;;;;;;5131335;27;38239;-78
2021/05/12 12:01:13;;;;;;;4.63;2.50;;;20.80;42.60;;;;;;5138609;27;38147;-78
2021/05/12 12:03:44;;;;;;;5.50;2.40;;;21.30;42.00;;;;;;5132646;27;37982;-78
2021/05/12 12:06:16;;;;;;;2.60;2.10;;;21.40;42.20;;;;;;5126202;27;40176;-78
2021/05/12 12:08:45;;;;;;;3.00;2.17;;;21.60;42.30;;;;;;5128759;27;39504;-78
2021/05/12 12:11:15;;;;;;;5.63;2.40;;;21.70;41.70;;;;;;5109789;27;36698;-78
2021/05/12 12:13:44;;;;;;;4.00;2.50;;;21.70;41.20;;;;;;5131965;27;36936;-79
2021/05/12 12:16:15;;;;;;;4.70;2.70;;;21.60;40.20;;;;;;5134331;27;39906;-79
2021/05/12 12:18:42;;;;;;;3.87;2.57;;;21.20;39.80;;;;;;5122861;27;38659;-78
2021/05/12 12:21:28;;;;;;;2.70;2.37;;;20.90;41.20;;;;;;5122601;27;37915;-78
2021/05/12 12:24:08;;;;;;;4.23;2.10;;;20.60;40.70;;;;;;5106896;27;37057;-79
2021/05/12 12:26:44;;;;;;;5.97;2.77;;;20.60;41.00;;;;;;5117416;27;38253;-79
2021/05/12 12:29:12;;;;;;;5.03;2.30;;;20.40;41.60;;;;;;5136949;27;39516;-79
2021/05/12 12:31:44;;;;;;;3.67;2.23;;;20.30;41.70;;;;;;5130149;27;38522;-78
2021/05/12 12:34:28;;;;;;;6.57;2.90;;;20.10;41.80;;;;;;5136178;27;37417;-79
2021/05/12 12:37:04;;;;;;;6.67;2.50;;;19.90;41.50;;;;;;5126482;27;40621;-80
2021/05/12 12:39:47;;;;;;;3.60;3.10;;;19.70;41.90;;;;;;5131846;27;38985;-80
2021/05/12 12:42:18;;;;;;;3.50;2.60;;;19.50;41.40;;;;;;5151157;27;38252;-78
2021/05/12 12:44:49;;;;;;;5.53;3.10;;;19.40;41.90;;;;;;5135046;27;36008;-78
2021/05/12 12:47:17;;;;;;;3.73;2.40;;;19.30;42.70;;;;;;5130265;27;39934;-79
2021/05/12 12:49:50;;;;;;;6.93;2.27;;;19.30;42.40;;;;;;5131342;27;39048;-79
2021/05/12 12:52:21;;;;;;;4.17;2.20;;;19.30;42.50;;;;;;5117330;27;36637;-80
2021/05/12 12:55:00;;;;;;;2.90;2.10;;;19.30;42.70;;;;;;5126876;27;37927;-78
2021/05/12 12:57:40;;;;;;;4.10;2.50;;;19.30;42.80;;;;;;5122243;27;40076;-80
2021/05/12 13:00:13;;;;;;;3.90;3.03;;;19.10;42.80;;;;;;5142754;27;38935;-77
2021/05/12 13:02:41;;;;;;;5.43;2.63;;;19.00;43.60;;;;;;5136747;27;36621;-78
2021/05/12 13:05:13;;;;;;;3.40;2.27;;;19.00;45.40;;;;;;5133769;27;37531;-77
2021/05/12 13:07:41;;;;;;;3.93;2.70;;;19.00;45.70;;;;;;5118884;27;38644;-76
2021/05/12 13:10:33;;;;;;;3.73;3.43;;;19.10;44.70;;;;;;5113972;27;38302;-78
2021/05/12 13:13:00;;;;;;;4.40;2.93;;;19.20;44.60;;;;;;5137193;27;38568;-78